Caletta — ICNZ — position and weather

sailwx.info

Track history (hours):
 
Tides and Currents Weather Stations Pressure Air Temp Water Temp Dewpoint Dewpoint Depression Visibility Wind Speed Wind Dir Waves Ship Positions

Caletta

Last reported at 2015-Feb-08 09:33 UTC. Time now 2015-Feb-27 11:43 UTC.
Position N 39°12' W 029°34'.
Warning: this ship's position is 19 days out of date.

Length 183 m; draft 12.2 m.

Type: Tanker. MMSI: 247296300.

Date/timePositionNaut miles runAvg speedWind from/ knotsBaromVisibWave heightAir tempDewpointWater temp
2015-Feb-08 09:33N 39°12' W 029°34'1211.5
2015-Feb-08 08:33N 39°18' W 029°21'1211.9
2015-Feb-08 07:33N 39°24' W 029°07'1211.8
2015-Feb-08 06:33N 39°30' W 028°54'1211.5
2015-Feb-08 05:33N 39°35' W 028°41'1211.5
2015-Feb-08 04:33N 39°41' W 028°28'1211.8
2015-Feb-08 03:33N 39°47' W 028°15'1211.7
2015-Feb-08 02:33N 39°53' W 028°02'  
2015-Feb-03 06:21N 50°29' W 000°01'1111.7
2015-Feb-03 05:23N 50°32' E 000°16'1112.7
2015-Feb-03 04:33N 50°35' E 000°32'1312.8
2015-Feb-03 03:33N 50°42' E 000°49'1212.2
2015-Feb-03 02:33N 50°48' E 001°06'1111.2
2015-Feb-03 01:32N 50°56' E 001°19'1010.0
2015-Feb-03 00:34N 51°03' E 001°30'9 9.3
2015-Feb-02 23:33N 51°09' E 001°40'1010.1
2015-Feb-02 22:33N 51°18' E 001°50'1211.8
2015-Feb-02 21:34N 51°28' E 001°59'1312.9
2015-Feb-02 20:33N 51°38' E 002°13'7911.3
2015-Feb-02 13:33N 52°31' E 003°47'1010.1
2015-Feb-02 12:34N 52°31' E 004°03'1010.4
2015-Feb-02 11:33N 52°30' E 004°20'  
Track history (hours):
 
Tides and Currents Weather Stations Pressure Air Temp Water Temp Dewpoint Dewpoint Depression Visibility Wind Speed Wind Dir Waves Ship Positions

Caletta

Last reported at 2015-Feb-08 09:33 UTC. Time now 2015-Feb-27 11:43 UTC.
Position N 39°12' W 029°34'.
Warning: this ship's position is 19 days out of date.

Length 183 m; draft 12.2 m.

Type: Tanker. MMSI: 247296300.

Date/timePositionNaut miles runAvg speedWind from/ knotsBaromVisibWave heightAir tempDewpointWater temp
2015-Feb-08 09:33N 39°12' W 029°34'1211.5
2015-Feb-08 08:33N 39°18' W 029°21'1211.9
2015-Feb-08 07:33N 39°24' W 029°07'1211.8
2015-Feb-08 06:33N 39°30' W 028°54'1211.5
2015-Feb-08 05:33N 39°35' W 028°41'1211.5
2015-Feb-08 04:33N 39°41' W 028°28'1211.8
2015-Feb-08 03:33N 39°47' W 028°15'1211.7
2015-Feb-08 02:33N 39°53' W 028°02'  
2015-Feb-03 06:21N 50°29' W 000°01'1111.7
2015-Feb-03 05:23N 50°32' E 000°16'1112.7
2015-Feb-03 04:33N 50°35' E 000°32'1312.8
2015-Feb-03 03:33N 50°42' E 000°49'1212.2
2015-Feb-03 02:33N 50°48' E 001°06'1111.2
2015-Feb-03 01:32N 50°56' E 001°19'1010.0
2015-Feb-03 00:34N 51°03' E 001°30'9 9.3
2015-Feb-02 23:33N 51°09' E 001°40'1010.1
2015-Feb-02 22:33N 51°18' E 001°50'1211.8
2015-Feb-02 21:34N 51°28' E 001°59'1312.9
2015-Feb-02 20:33N 51°38' E 002°13'7911.3
2015-Feb-02 13:33N 52°31' E 003°47'1010.1
2015-Feb-02 12:34N 52°31' E 004°03'1010.4
2015-Feb-02 11:33N 52°30' E 004°20'  

Dump ship's entire track history